地図

経路データ

SID SEASON NUMBER BASIN SUBBASIN NAME ISO_TIME NATURE LAT LON WMO_WIND WMO_PRES WMO_AGENCY TRACK_TYPE DIST2LAND LANDFALL IFLAG USA_AGENCY USA_ATCF_ID USA_LAT USA_LON USA_RECORD USA_STATUS USA_WIND USA_PRES USA_SSHS USA_R34_NE USA_R34_SE USA_R34_SW USA_R34_NW USA_R50_NE USA_R50_SE USA_R50_SW USA_R50_NW USA_R64_NE USA_R64_SE USA_R64_SW USA_R64_NW USA_POCI USA_ROCI USA_RMW USA_EYE TOKYO_LAT TOKYO_LON TOKYO_GRADE TOKYO_WIND TOKYO_PRES TOKYO_R50_DIR TOKYO_R50_LONG TOKYO_R50_SHORT TOKYO_R30_DIR TOKYO_R30_LONG TOKYO_R30_SHORT TOKYO_LAND CMA_LAT CMA_LON CMA_CAT CMA_WIND CMA_PRES HKO_LAT HKO_LON HKO_CAT HKO_WIND HKO_PRES NEWDELHI_LAT NEWDELHI_LON NEWDELHI_GRADE NEWDELHI_WIND NEWDELHI_PRES NEWDELHI_CI NEWDELHI_DP NEWDELHI_POCI REUNION_LAT REUNION_LON REUNION_TYPE REUNION_WIND REUNION_PRES REUNION_TNUM REUNION_CI REUNION_RMW REUNION_R34_NE REUNION_R34_SE REUNION_R34_SW REUNION_R34_NW REUNION_R50_NE REUNION_R50_SE REUNION_R50_SW REUNION_R50_NW REUNION_R64_NE REUNION_R64_SE REUNION_R64_SW REUNION_R64_NW BOM_LAT BOM_LON BOM_TYPE BOM_WIND BOM_PRES BOM_TNUM BOM_CI BOM_RMW BOM_R34_NE BOM_R34_SE BOM_R34_SW BOM_R34_NW BOM_R50_NE BOM_R50_SE BOM_R50_SW BOM_R50_NW BOM_R64_NE BOM_R64_SE BOM_R64_SW BOM_R64_NW BOM_ROCI BOM_POCI BOM_EYE BOM_POS_METHOD BOM_PRES_METHOD NADI_LAT NADI_LON NADI_CAT NADI_WIND NADI_PRES WELLINGTON_LAT WELLINGTON_LON WELLINGTON_WIND WELLINGTON_PRES DS824_LAT DS824_LON DS824_STAGE DS824_WIND DS824_PRES TD9636_LAT TD9636_LON TD9636_STAGE TD9636_WIND TD9636_PRES TD9635_LAT TD9635_LON TD9635_WIND TD9635_PRES TD9635_ROCI NEUMANN_LAT NEUMANN_LON NEUMANN_CLASS NEUMANN_WIND NEUMANN_PRES MLC_LAT MLC_LON MLC_CLASS MLC_WIND MLC_PRES USA_GUST BOM_GUST BOM_GUST_PER REUNION_GUST REUNION_GUST_PER USA_SEAHGT USA_SEARAD_NE USA_SEARAD_SE USA_SEARAD_SW USA_SEARAD_NW STORM_SPEED STORM_DIR
1936045S12152 1936 7 SP EA NOT_NAMED 1936-02-13 23:00:00 NR -11.6000 151.800 main 164 164 __________O___ -1 -11.6000 151.800 7 8 219
1936045S12152 1936 7 SP EA NOT_NAMED 1936-02-14 00:00:00 TS -11.6979 151.720 main 164 154 _________OP___ -1 -11.8000 151.800 TC -11.6468 151.681 7 7 240
1936045S12152 1936 7 SP EA NOT_NAMED 1936-02-14 03:00:00 TS -11.8420 151.374 main 154 152 _________PP___ -1 -11.9223 151.448 TC -11.7885 151.324 7 7 247
1936045S12152 1936 7 SP EA NOT_NAMED 1936-02-14 06:00:00 TS -11.9830 151.026 main 159 155 _________PP___ -1 -12.0470 151.099 TC -11.9349 150.971 7 7 246
1936045S12152 1936 7 SP EA NOT_NAMED 1936-02-14 09:00:00 TS -12.1334 150.690 main 160 160 _________PP___ -1 -12.1768 150.755 TC -12.0899 150.625 7 7 245
1936045S12152 1936 7 SP EA NOT_NAMED 1936-02-14 11:00:00 TS -12.2337 150.465 main 168 167 _________PO___ -1 -12.2675 150.529 TC -12.2000 150.400 7 7 245
1936045S12152 1936 7 SP EA NOT_NAMED 1936-02-14 12:00:00 TS -12.2859 150.354 main 179 179 _________PP___ -1 -12.3144 150.418 TC -12.2575 150.290 7 7 243
1936045S12152 1936 7 SP EA NOT_NAMED 1936-02-14 15:00:00 TS -12.4513 150.030 main 202 202 _________PP___ -1 -12.4628 150.091 TC -12.4399 149.968 7 7 241
1936045S12152 1936 7 SP EA NOT_NAMED 1936-02-14 18:00:00 TS -12.6310 149.720 main 219 219 _________PP___ -1 -12.6246 149.778 TC -12.6374 149.663 7 7 237
1936045S12152 1936 7 SP EA NOT_NAMED 1936-02-14 21:00:00 TS -12.8263 149.429 main 250 250 _________PP___ -1 -12.8027 149.480 TC -12.8500 149.378 7 7 234
1936045S12152 1936 7 SP EA NOT_NAMED 1936-02-14 23:00:00 TS -12.9660 149.246 main 279 279 _________PO___ -1 -12.9319 149.291 TC -13.0000 149.200 7 7 231
1936045S12152 1936 7 SP EA NOT_NAMED 1936-02-15 00:00:00 TS -13.0383 149.157 main 279 279 _________OP___ -1 -13.0000 149.200 TC -13.0766 149.115 7 7 227
1936045S12152 1936 7 SP EA NOT_NAMED 1936-02-15 03:00:00 TS -13.2676 148.908 main 321 321 _________PP___ -1 -13.2179 148.940 TC -13.3173 148.876 7 7 225
1936045S12152 1936 7 SP EA NOT_NAMED 1936-02-15 06:00:00 TS -13.5111 148.677 main 350 350 _________PP___ -1 -13.4524 148.698 TC -13.5699 148.655 7 7 222
1936045S12152 1936 7 SP EA NOT_NAMED 1936-02-15 09:00:00 TS -13.7630 148.457 main 370 345 _________PP___ -1 -13.6979 148.472 TC -13.8280 148.442 7 7 220
1936045S12152 1936 7 SP EA NOT_NAMED 1936-02-15 11:00:00 TS -13.9325 148.315 main 345 341 _________PO___ -1 -13.8651 148.330 TC -14.0000 148.300 7 7 219
1936045S12152 1936 7 SP EA NOT_NAMED 1936-02-15 12:00:00 TS -14.0193 148.240 main 331 300 _________PP___ -1 -13.9491 148.260 TC -14.0895 148.220 7 7 220
1936045S12152 1936 7 SP EA NOT_NAMED 1936-02-15 15:00:00 TS -14.2805 148.019 main 300 273 _________PP___ -1 -14.2004 148.059 TC -14.3605 147.978 7 7 219
1936045S12152 1936 7 SP EA NOT_NAMED 1936-02-15 18:00:00 TS -14.5348 147.805 main 273 242 _________PP___ -1 -14.4463 147.867 TC -14.6232 147.743 7 6 219
1936045S12152 1936 7 SP EA NOT_NAMED 1936-02-15 21:00:00 TS -14.7716 147.604 main 242 229 _________PP___ -1 -14.6814 147.681 TC -14.8619 147.527 7 6 220
1936045S12152 1936 7 SP EA NOT_NAMED 1936-02-15 23:00:00 TS -14.9146 147.480 main 229 217 _________PO___ -1 -14.8293 147.560 TC -15.0000 147.400 7 5 220
1936045S12152 1936 7 SP EA NOT_NAMED 1936-02-16 00:00:00 TS -14.9792 147.424 main 217 205 _________OP___ -1 -14.9000 147.500 TC -15.0584 147.347 7 5 217
1936045S12152 1936 7 SP EA NOT_NAMED 1936-02-16 03:00:00 TS -15.1556 147.291 main 204 193 _________PP___ -1 -15.1052 147.369 TC -15.2060 147.212 7 4 216
1936045S12152 1936 7 SP EA NOT_NAMED 1936-02-16 06:00:00 TS -15.3115 147.174 main 193 182 _________PP___ -1 -15.2985 147.251 TC -15.3245 147.097 7 4 217
1936045S12152 1936 7 SP EA NOT_NAMED 1936-02-16 09:00:00 TS -15.4539 147.059 main 183 173 _________PP___ -1 -15.4781 147.135 TC -15.4297 146.984 7 4 220
1936045S12152 1936 7 SP EA NOT_NAMED 1936-02-16 11:00:00 TS -15.5446 146.975 main 173 159 _________PO___ -1 -15.5892 147.051 TC -15.5000 146.900 7 4 222
1936045S12152 1936 7 SP EA NOT_NAMED 1936-02-16 12:00:00 TS -15.5924 146.931 main 159 146 _________PP___ -1 -15.6420 147.005 TC -15.5428 146.856 7 4 225
1936045S12152 1936 7 SP EA NOT_NAMED 1936-02-16 15:00:00 TS -15.7300 146.783 main 146 119 _________PP___ -1 -15.7882 146.850 TC -15.6719 146.715 7 4 230
1936045S12152 1936 7 SP EA NOT_NAMED 1936-02-16 18:00:00 TS -15.8570 146.605 main 119 96 _________PP___ -1 -15.9146 146.657 TC -15.7994 146.553 7 5 238
1936045S12152 1936 7 SP EA NOT_NAMED 1936-02-16 21:00:00 TS -15.9708 146.383 main 96 75 _________PP___ -1 -16.0193 146.411 TC -15.9222 146.356 7 5 245
1936045S12152 1936 7 SP EA NOT_NAMED 1936-02-16 23:00:00 TS -16.0380 146.206 main 75 64 _________PO___ -1 -16.0759 146.212 TC -16.0000 146.200 7 6 249
1936045S12152 1936 7 SP EA NOT_NAMED 1936-02-17 00:00:00 TS -16.0708 146.108 main 64 32 _________OP___ -1 -16.1000 146.100 TC -16.0416 146.116 7 7 254
1936045S12152 1936 7 SP EA NOT_NAMED 1936-02-17 03:00:00 TS -16.1616 145.773 main 32 0 _________PP___ -1 -16.1602 145.715 TC -16.1629 145.831 7 7 256
1936045S12152 1936 7 SP EA NOT_NAMED 1936-02-17 06:00:00 TS -16.2359 145.403 main 0 0 _________OP___ -1 -16.2000 145.300 TC -16.2717 145.505 7 7 260
1936045S12152 1936 7 SP EA NOT_NAMED 1936-02-17 09:00:00 TS -16.2932 145.021 main 0 0 _________PP___ -1 -16.2276 144.891 TC -16.3587 145.150 7 7 262
1936045S12152 1936 7 SP EA NOT_NAMED 1936-02-17 11:00:00 TS -16.3182 144.758 main 0 0 _________PO___ -1 -16.2365 144.616 TC -16.4000 144.900 7 8 265
1936045S12152 1936 7 SP EA NOT_NAMED 1936-02-17 12:00:00 TS -16.3271 144.625 main 0 0 _________PP___ -1 -16.2383 144.478 TC -16.4159 144.773 7 8 268
1936045S12152 1936 7 SP EA NOT_NAMED 1936-02-17 15:00:00 TS -16.3384 144.218 main 0 0 _________PP___ -1 -16.2343 144.062 TC -16.4426 144.374 7 8 270
1936045S12152 1936 7 SP EA NOT_NAMED 1936-02-17 18:00:00 TS -16.3302 143.805 main 0 0 _________PP___ -1 -16.2179 143.647 TC -16.4426 143.962 7 8 272
1936045S12152 1936 7 SP EA NOT_NAMED 1936-02-17 21:00:00 TS -16.3067 143.396 main 0 0 _________PP___ -1 -16.1915 143.235 TC -16.4220 143.557 7 8 276
1936045S12152 1936 7 SP EA NOT_NAMED 1936-02-17 23:00:00 TS -16.2642 143.150 bom main 0 0 ______O__PO___ -1 -16.1000 143.300 -16.1695 142.963 TC -16.4000 143.300 7 7 283
1936045S12152 1936 7 SP EA NOT_NAMED 1936-02-18 00:00:00 TS -16.2294 143.044 main 0 0 ______P__PP___ -1 -16.0576 143.187 -16.1574 142.828 TC -16.3874 143.188 7 7 285
1936045S12152 1936 7 SP EA NOT_NAMED 1936-02-18 03:00:00 TS -16.1478 142.703 main 0 0 ______P__PP___ -1 -15.9343 142.845 -16.1181 142.430 TC -16.3376 142.870 7 7 285
1936045S12152 1936 7 SP EA NOT_NAMED 1936-02-18 06:00:00 TS -16.0606 142.367 main 0 0 ______P__PP___ -1 -15.8259 142.495 -16.0759 142.044 TC -16.2798 142.561 7 7 282
1936045S12152 1936 7 SP EA NOT_NAMED 1936-02-18 09:00:00 TS -16.0013 142.013 main 0 0 ______P__PP___ -1 -15.7439 142.130 -16.0334 141.670 TC -16.2267 142.237 7 7 279
1936045S12152 1936 7 SP EA NOT_NAMED 1936-02-18 11:00:00 TS -15.9718 141.769 main 0 0 ______P__PO___ -1 -15.7095 141.875 -16.0059 141.431 TC -16.2000 142.000 7 7 276
1936045S12152 1936 7 SP EA NOT_NAMED 1936-02-18 12:00:00 TS -15.9616 141.636 main 0 0 ______P__PP___ -1 -15.6997 141.743 -15.9928 141.314 TC -16.1923 141.851 7 8 273
1936045S12152 1936 7 SP EA NOT_NAMED 1936-02-18 14:30:00 TS -15.9477 141.294 bom main 10 10 ______O__PP___ -1 -15.7000 141.400 -15.9623 141.030 TC -16.1807 141.451 7 8 272
1936045S12152 1936 7 SP EA NOT_NAMED 1936-02-18 15:00:00 TS -15.9470 141.224 main 21 21 ______P__PP___ -1 -15.7047 141.329 -15.9567 140.975 TC -16.1796 141.369 7 8 269
1936045S12152 1936 7 SP EA NOT_NAMED 1936-02-18 18:00:00 TS -15.9558 140.810 main 64 64 ______P__PP___ -1 -15.7602 140.890 -15.9276 140.659 TC -16.1797 140.880 7 8 268
1936045S12152 1936 7 SP EA NOT_NAMED 1936-02-18 21:00:00 TS -15.9801 140.422 main 106 106 ______P__PP___ -1 -15.8429 140.462 -15.9078 140.366 TC -16.1895 140.439 7 7 266
1936045S12152 1936 7 SP EA NOT_NAMED 1936-02-18 23:00:00 TS -16.0004 140.195 bom main 125 125 ______O__PO___ -1 -15.9000 140.200 -15.9011 140.186 TC -16.2000 140.200 7 6 265
1936045S12152 1936 7 SP EA NOT_NAMED 1936-02-19 00:00:00 TS -16.0065 140.102 main 135 134 ______P__OP___ -1 -15.9174 140.087 -15.9000 140.100 TC -16.2022 140.118 7 5 265
1936045S12152 1936 7 SP EA NOT_NAMED 1936-02-19 03:00:00 TS -16.0269 139.870 main 134 123 ______P__PP___ -1 -15.9605 139.795 -15.9063 139.869 TC -16.2138 139.947 7 4 264
1936045S12152 1936 7 SP EA NOT_NAMED 1936-02-19 06:00:00 TS -16.0494 139.691 main 123 104 ______P__PP___ -1 -15.9935 139.563 -15.9196 139.662 TC -16.2351 139.846 7 3 261
1936045S12152 1936 7 SP EA NOT_NAMED 1936-02-19 09:00:00 TS -16.0769 139.540 main 104 104 ______P__PP___ -1 -16.0210 139.380 -15.9409 139.474 TC -16.2690 139.766 7 3 258
1936045S12152 1936 7 SP EA NOT_NAMED 1936-02-19 11:00:00 TS -16.0994 139.446 main 99 99 ______P__PO___ -1 -16.0382 139.279 -15.9600 139.358 TC -16.3000 139.700 7 3 256
1936045S12152 1936 7 SP EA NOT_NAMED 1936-02-19 12:00:00 TS -16.1117 139.392 main 99 81 ______P__PP___ -1 -16.0470 139.233 -15.9711 139.303 TC -16.3171 139.642 7 3 254
1936045S12152 1936 7 SP EA NOT_NAMED 1936-02-19 15:00:00 TS -16.1553 139.234 main 81 79 ______P__PP___ -1 -16.0761 139.109 -16.0111 139.143 TC -16.3788 139.452 7 3 252
1936045S12152 1936 7 SP EA NOT_NAMED 1936-02-19 18:00:00 TS -16.2094 139.078 main 79 64 ______P__PP___ -1 -16.1123 138.996 -16.0620 138.992 TC -16.4539 139.245 7 3 248
1936045S12152 1936 7 SP EA NOT_NAMED 1936-02-19 21:00:00 TS -16.2745 138.921 main 64 59 ______P__PP___ -1 -16.1599 138.882 -16.1247 138.845 TC -16.5391 139.035 7 3 245
1936045S12152 1936 7 SP EA NOT_NAMED 1936-02-19 23:00:00 TS -16.3245 138.816 950 bom main 59 59 ______O__PO___ -1 -16.2000 138.800 950 4 -16.1734 138.749 TC -16.6000 138.900 7 3 243
1936045S12152 1936 7 SP EA NOT_NAMED 1936-02-20 00:00:00 TS -16.3526 138.761 main 49 44 ______P__OP___ -1 -16.2265 138.745 -16.2000 138.700 TC 45 992 -16.6312 138.838 7 4 240
1936045S12152 1936 7 SP EA NOT_NAMED 1936-02-20 03:00:00 TS -16.4459 138.595 main 44 33 ______P__PP___ -1 -16.3141 138.580 -16.2929 138.545 TC -16.7308 138.659 7 4 238
1936045S12152 1936 7 SP EA NOT_NAMED 1936-02-20 06:00:00 TS -16.5466 138.433 main 33 22 ______P__PP___ -1 -16.4092 138.418 -16.3958 138.395 TC -16.8346 138.485 7 4 237
1936045S12152 1936 7 SP EA NOT_NAMED 1936-02-20 09:00:00 TS -16.6479 138.273 main 22 10 ______P__PP___ -1 -16.5064 138.258 -16.5009 138.247 TC -16.9364 138.314 7 4 237
1936045S12152 1936 7 SP EA NOT_NAMED 1936-02-20 11:00:00 TS -16.7125 138.167 main 10 0 ______P__PO___ -1 -16.5695 138.153 -16.5681 138.149 TC -17.0000 138.200 7 4 239
1936045S12152 1936 7 SP EA NOT_NAMED 1936-02-20 12:00:00 TS -16.7403 138.116 bom main 0 0 ______O__OP___ -1 -16.6000 138.100 -16.6000 138.100 TC -17.0209 138.148 7 3 245
1936045S12152 1936 7 SP EA NOT_NAMED 1936-02-20 15:00:00 TS -16.7982 137.973 main 0 0 ______P__PP___ -1 -16.6597 137.958 -16.6598 137.967 TC -17.0751 137.993 7 3 247
1936045S12152 1936 7 SP EA NOT_NAMED 1936-02-20 18:00:00 TS -16.8568 137.825 main 0 0 ______P__PP___ -1 -16.7206 137.814 -16.7162 137.831 TC -17.1335 137.831 7 3 245
1936045S12152 1936 7 SP EA NOT_NAMED 1936-02-20 21:00:00 TS -16.9366 137.660 main 0 0 ______P__PP___ -1 -16.8022 137.655 -16.7895 137.680 TC -17.2182 137.645 7 4 241
1936045S12152 1936 7 SP EA NOT_NAMED 1936-02-20 23:00:00 TS -17.0118 137.532 main 0 0 ______P__PO___ -1 -16.8777 137.533 -16.8578 137.564 TC -17.3000 137.500 7 4 237
1936045S12152 1936 7 SP EA NOT_NAMED 1936-02-20 23:30:00 TS -17.0343 137.497 bom main 0 0 ______O__PP___ -1 -16.9000 137.500 -16.8781 137.532 TC -17.3249 137.460 7 5 234
1936045S12152 1936 7 SP EA NOT_NAMED 1936-02-21 00:00:00 TS -17.0584 137.461 main 0 0 ______P__OP___ -1 -16.9239 137.466 -16.9000 137.500 TC -17.3512 137.418 7 6 233
1936045S12152 1936 7 SP EA NOT_NAMED 1936-02-21 03:00:00 TS -17.2326 137.222 main 0 0 ______P__PP___ -1 -17.0981 137.239 -17.0633 137.282 TC -17.5364 137.145 7 6 231
1936045S12152 1936 7 SP EA NOT_NAMED 1936-02-21 06:00:00 TS -17.4528 136.948 main 0 0 ______P__PP___ -1 -17.3204 136.977 -17.2767 137.027 TC -17.7614 136.841 7 7 229
1936045S12152 1936 7 SP EA NOT_NAMED 1936-02-21 09:00:00 TS -17.7111 136.648 main 0 0 ______P__PP___ -1 -17.5835 136.685 -17.5328 136.740 TC -18.0171 136.519 7 8 227
1936045S12152 1936 7 SP EA NOT_NAMED 1936-02-21 11:00:00 TS -17.9006 136.436 main 0 0 ______P__PO___ -1 -17.7780 136.476 -17.7238 136.533 TC -18.2000 136.300 7 8 226
1936045S12152 1936 7 SP EA NOT_NAMED 1936-02-21 12:00:00 TS -17.9996 136.328 main 0 0 ______P__PP___ -1 -17.8802 136.367 -17.8245 136.426 TC -18.2942 136.191 7 9 226
1936045S12152 1936 7 SP EA NOT_NAMED 1936-02-21 15:00:00 TS -18.3110 135.995 main 0 0 ______P__PP___ -1 -18.2033 136.029 -18.1444 136.090 TC -18.5854 135.865 7 9 226
1936045S12152 1936 7 SP EA NOT_NAMED 1936-02-21 18:00:00 TS -18.6167 135.661 main 0 0 ______P__PP___ -1 -18.5458 135.674 -18.4851 135.737 TC -18.8866 135.540 7 9 226
1936045S12152 1936 7 SP EA NOT_NAMED 1936-02-21 21:00:00 TS -18.9385 135.316 main 0 0 ______P__PP___ -1 -18.9004 135.309 -18.8394 135.372 TC -19.1938 135.216 7 9 226
1936045S12152 1936 7 SP EA NOT_NAMED 1936-02-21 23:00:00 TS -19.1531 135.083 main 0 0 ______P__PO___ -1 -19.1400 135.062 -19.0795 135.124 TC -19.4000 135.000 7 8 229
1936045S12152 1936 7 SP EA NOT_NAMED 1936-02-21 23:30:00 TS -19.1598 135.041 bom main 0 0 ______O__P____ -1 -19.2000 135.000 -19.1398 135.062 TC 7 5 238
1936045S12152 1936 7 SP EA NOT_NAMED 1936-02-22 00:00:00 TS -19.2000 135.000 main 0 _________O____ -1 -19.2000 135.000 TC 7 7 224

デジタル台風データ・検索

IBTrACS Databaseについて

本データベースは、米国NOAAが公開する1842年以降の世界の熱帯低気圧のベストトラックデータアーカイブInternational Best Track Archive for Climate Stewardship (IBTrACS)を、ウェブで閲覧しやすい形式に変換したものです。

最終更新日:2021-12-03